createdAt,value
2019-03-28T00:00:36.004Z,8.70
2019-03-28T00:01:35.997Z,6.90
2019-03-28T00:02:35.982Z,8.10
2019-03-28T00:03:35.975Z,11.00
2019-03-28T00:04:35.971Z,8.50
2019-03-28T00:05:35.954Z,6.70
2019-03-28T00:06:35.940Z,8.60
2019-03-28T00:07:36.084Z,8.30
2019-03-28T00:08:35.918Z,8.00
2019-03-28T00:09:35.927Z,10.60
2019-03-28T00:10:35.898Z,6.70
2019-03-28T00:11:35.895Z,5.70
2019-03-28T00:12:35.875Z,8.50
2019-03-28T00:13:35.875Z,6.90
2019-03-28T00:14:35.867Z,11.70
2019-03-28T00:15:35.846Z,9.50
2019-03-28T00:16:35.831Z,8.20
2019-03-28T00:17:35.825Z,9.80
2019-03-28T00:18:35.816Z,5.70
2019-03-28T00:19:35.819Z,5.80
2019-03-28T00:20:35.785Z,11.70
2019-03-28T00:21:35.781Z,7.70
2019-03-28T00:22:35.763Z,14.00
2019-03-28T00:23:35.757Z,10.20
2019-03-28T00:24:35.769Z,7.60
2019-03-28T00:25:35.738Z,7.90
2019-03-28T00:26:35.718Z,13.20
2019-03-28T00:27:35.713Z,9.30
2019-03-28T00:28:35.697Z,5.40
2019-03-28T00:29:35.689Z,8.50
2019-03-28T00:30:35.690Z,6.30
2019-03-28T00:31:35.669Z,9.60
2019-03-28T00:32:35.651Z,7.80
2019-03-28T00:33:35.645Z,6.70
2019-03-28T00:34:35.633Z,9.90
2019-03-28T00:35:35.643Z,6.70
2019-03-28T00:36:35.613Z,7.90
2019-03-28T00:37:35.601Z,7.80
2019-03-28T00:38:35.587Z,9.10
2019-03-28T00:39:35.580Z,9.70
2019-03-28T00:40:35.577Z,8.80
2019-03-28T00:41:35.567Z,11.10
2019-03-28T00:42:35.542Z,9.50
2019-03-28T00:43:35.535Z,8.70
2019-03-28T00:44:35.519Z,6.90
2019-03-28T00:45:35.529Z,9.70
2019-03-28T00:46:35.508Z,11.80
2019-03-28T00:47:36.174Z,10.80
2019-03-28T00:48:35.479Z,7.30
2019-03-28T00:49:35.470Z,9.20
2019-03-28T00:50:35.465Z,7.40
2019-03-28T00:51:35.448Z,10.70
2019-03-28T00:52:35.437Z,8.20
2019-03-28T00:53:35.427Z,10.90
2019-03-28T00:54:35.412Z,6.90
2019-03-28T00:55:35.415Z,11.90
2019-03-28T00:56:45.214Z,8.50
2019-03-28T00:57:36.377Z,8.20
2019-03-28T00:58:35.373Z,9.40
2019-03-28T00:59:35.353Z,7.70
2019-03-28T01:00:35.359Z,5.80
2019-03-28T01:01:35.330Z,6.90
2019-03-28T01:02:35.323Z,5.90
2019-03-28T01:03:35.307Z,15.30
2019-03-28T01:04:35.301Z,10.40
2019-03-28T01:05:35.303Z,7.50
2019-03-28T01:06:35.278Z,6.30
2019-03-28T01:07:35.263Z,9.30
2019-03-28T01:08:35.257Z,6.90
2019-03-28T01:09:35.246Z,8.70
2019-03-28T01:10:35.250Z,9.70
2019-03-28T01:11:35.220Z,7.20
2019-03-28T01:12:35.215Z,7.60
2019-03-28T01:13:35.196Z,11.10
2019-03-28T01:14:35.195Z,8.90
2019-03-28T01:15:35.190Z,7.00
2019-03-28T01:16:35.180Z,9.50
2019-03-28T01:17:35.154Z,6.40
2019-03-28T01:18:35.145Z,10.70
2019-03-28T01:19:35.239Z,8.40
2019-03-28T01:20:35.140Z,6.40
2019-03-28T01:21:35.106Z,9.00
2019-03-28T01:22:35.100Z,9.40
2019-03-28T01:23:35.085Z,7.30
2019-03-28T01:24:35.084Z,5.80
2019-03-28T01:25:35.076Z,8.40
2019-03-28T01:26:35.057Z,4.80
2019-03-28T01:27:35.053Z,9.10
2019-03-28T01:28:35.034Z,9.50
2019-03-28T01:29:35.019Z,8.40
2019-03-28T01:30:35.027Z,8.40
2019-03-28T01:31:34.998Z,10.70
2019-03-28T01:32:34.989Z,8.00
2019-03-28T01:33:34.979Z,8.30
2019-03-28T01:34:34.970Z,5.50
2019-03-28T01:35:34.963Z,5.50
2019-03-28T01:36:34.945Z,9.30
2019-03-28T01:37:34.930Z,6.20
2019-03-28T01:38:34.937Z,8.70
2019-03-28T01:39:35.301Z,7.70
2019-03-28T01:40:34.913Z,5.90
2019-03-28T01:41:34.883Z,4.50
2019-03-28T01:42:34.880Z,8.00
2019-03-28T01:43:34.863Z,6.20
2019-03-28T01:44:34.858Z,7.40
2019-03-28T01:45:34.859Z,8.90
2019-03-28T01:46:34.835Z,10.20
2019-03-28T01:47:34.818Z,7.60
2019-03-28T01:48:34.813Z,9.90
2019-03-28T01:49:34.795Z,10.00
2019-03-28T01:50:34.809Z,9.20
2019-03-28T01:51:34.776Z,7.10
2019-03-28T01:52:34.768Z,11.90
2019-03-28T01:53:34.752Z,8.40
2019-03-28T01:54:34.748Z,11.10
2019-03-28T01:55:34.743Z,7.60
2019-03-28T01:56:34.727Z,7.60
2019-03-28T01:57:34.707Z,10.70
2019-03-28T01:58:34.701Z,7.80
2019-03-28T01:59:34.686Z,8.00
2019-03-28T02:00:34.693Z,9.70
2019-03-28T02:01:34.661Z,5.20
2019-03-28T02:02:34.655Z,8.40
2019-03-28T02:03:34.641Z,6.80
2019-03-28T02:04:34.631Z,5.80
2019-03-28T02:05:34.637Z,6.30
2019-03-28T02:06:34.611Z,6.40
2019-03-28T02:07:34.599Z,6.90
2019-03-28T02:08:34.591Z,6.70
2019-03-28T02:09:34.573Z,8.90
2019-03-28T02:10:34.578Z,10.30
2019-03-28T02:11:34.553Z,13.10
2019-03-28T02:12:34.545Z,6.40
2019-03-28T02:13:34.542Z,5.60
2019-03-28T02:14:34.522Z,9.50
2019-03-28T02:15:34.517Z,6.70
2019-03-28T02:16:34.499Z,6.30
2019-03-28T02:17:34.483Z,7.70
2019-03-28T02:18:34.483Z,11.80
2019-03-28T02:19:34.463Z,6.60
2019-03-28T02:20:34.467Z,9.70
2019-03-28T02:21:34.439Z,17.00
2019-03-28T02:22:34.432Z,7.50
2019-03-28T02:23:34.416Z,10.80
2019-03-28T02:24:34.409Z,9.80
2019-03-28T02:25:34.408Z,10.30
2019-03-28T02:26:34.452Z,12.20
2019-03-28T02:27:34.374Z,6.90
2019-03-28T02:28:34.370Z,11.20
2019-03-28T02:29:34.353Z,6.90
2019-03-28T02:30:34.366Z,13.20
2019-03-28T02:31:34.327Z,7.60
2019-03-28T02:32:34.320Z,8.60
2019-03-28T02:33:34.310Z,11.70
2019-03-28T02:34:34.298Z,9.20
2019-03-28T02:35:34.315Z,5.20
2019-03-28T02:36:34.291Z,7.70
2019-03-28T02:37:34.261Z,7.10
2019-03-28T02:38:34.255Z,8.10
2019-03-28T02:39:34.238Z,9.30
2019-03-28T02:40:34.248Z,11.10
2019-03-28T02:41:34.969Z,11.40
2019-03-28T02:42:34.216Z,9.40
2019-03-28T02:43:34.195Z,8.30
2019-03-28T02:44:34.188Z,11.60
2019-03-28T02:45:34.183Z,8.90
2019-03-28T02:46:34.165Z,8.40
2019-03-28T02:47:34.153Z,7.40
2019-03-28T02:48:34.144Z,7.50
2019-03-28T02:49:34.137Z,9.60
2019-03-28T02:50:34.132Z,9.90
2019-03-28T02:51:34.110Z,8.30
2019-03-28T02:52:34.102Z,11.50
2019-03-28T02:53:34.082Z,8.10
2019-03-28T02:54:34.075Z,8.60
2019-03-28T02:55:34.094Z,6.70
2019-03-28T02:56:34.054Z,8.60
2019-03-28T02:57:41.593Z,10.80
2019-03-28T02:58:35.028Z,9.40
2019-03-28T02:59:34.027Z,7.70
2019-03-28T03:00:34.004Z,11.90
2019-03-28T03:01:34.011Z,9.60
2019-03-28T03:02:33.986Z,10.90
2019-03-28T03:03:33.978Z,7.70
2019-03-28T03:04:33.967Z,9.40
2019-03-28T03:05:33.953Z,10.40
2019-03-28T03:06:33.949Z,8.10
2019-03-28T03:07:33.931Z,10.20
2019-03-28T03:08:33.961Z,7.20
2019-03-28T03:09:33.910Z,13.20
2019-03-28T03:10:33.899Z,9.50
2019-03-28T03:11:33.903Z,13.50
2019-03-28T03:12:33.876Z,8.40
2019-03-28T03:13:33.865Z,12.90
2019-03-28T03:14:33.850Z,18.00
2019-03-28T03:15:33.846Z,14.00
2019-03-28T03:16:33.847Z,11.80
2019-03-28T03:17:33.824Z,7.40
2019-03-28T03:18:34.032Z,7.30
2019-03-28T03:19:33.798Z,14.10
2019-03-28T03:20:33.782Z,9.50
2019-03-28T03:21:33.786Z,9.50
2019-03-28T03:22:33.760Z,10.10
2019-03-28T03:23:33.753Z,10.80
2019-03-28T03:24:33.740Z,6.70
2019-03-28T03:25:33.730Z,10.10
2019-03-28T03:26:33.735Z,10.60
2019-03-28T03:27:33.712Z,8.70
2019-03-28T03:28:33.696Z,11.40
2019-03-28T03:29:33.685Z,9.90
2019-03-28T03:30:33.674Z,8.70
2019-03-28T03:31:33.679Z,8.60
2019-03-28T03:32:33.713Z,7.70
2019-03-28T03:33:33.648Z,8.80
2019-03-28T03:34:33.725Z,11.60
2019-03-28T03:35:33.620Z,11.40
2019-03-28T03:36:33.615Z,12.10
2019-03-28T03:37:33.614Z,8.90
2019-03-28T03:38:33.594Z,10.20
2019-03-28T03:39:33.580Z,11.80
2019-03-28T03:40:33.565Z,9.00
2019-03-28T03:41:33.567Z,12.20
2019-03-28T03:42:33.552Z,13.20
2019-03-28T03:43:33.535Z,9.30
2019-03-28T03:44:33.523Z,10.70
2019-03-28T03:45:33.513Z,12.20
2019-03-28T03:46:33.504Z,10.90
2019-03-28T03:47:33.485Z,15.60
2019-03-28T03:48:33.474Z,17.30
2019-03-28T03:49:33.470Z,13.80
2019-03-28T03:50:33.454Z,12.20
2019-03-28T03:51:33.462Z,11.40
2019-03-28T03:52:33.427Z,12.10
2019-03-28T03:53:33.421Z,9.20
2019-03-28T03:54:33.406Z,10.80
2019-03-28T03:55:33.405Z,11.50
2019-03-28T03:56:33.407Z,10.80
2019-03-28T03:57:33.378Z,7.60
2019-03-28T03:58:33.362Z,10.20
2019-03-28T03:59:33.354Z,12.90
2019-03-28T04:00:33.373Z,15.20
2019-03-28T04:01:33.355Z,12.70
2019-03-28T04:02:33.315Z,7.10
2019-03-28T04:03:33.311Z,9.70
2019-03-28T04:04:33.295Z,10.60
2019-03-28T04:05:33.293Z,8.50
2019-03-28T04:06:33.273Z,18.10
2019-03-28T04:07:33.277Z,7.60
2019-03-28T04:08:33.251Z,8.30
2019-03-28T04:09:33.242Z,13.30
2019-03-28T04:10:33.233Z,10.20
2019-03-28T04:11:33.224Z,14.70
2019-03-28T04:12:33.219Z,9.70
2019-03-28T04:13:33.211Z,14.50
2019-03-28T04:14:33.189Z,7.90
2019-03-28T04:15:33.240Z,14.70
2019-03-28T04:16:33.163Z,17.40
2019-03-28T04:17:33.172Z,15.80
2019-03-28T04:18:33.139Z,13.10
2019-03-28T04:19:33.140Z,12.70
2019-03-28T04:20:33.134Z,14.50
2019-03-28T04:21:33.121Z,8.60
2019-03-28T04:22:33.109Z,13.90
2019-03-28T04:23:33.089Z,10.70
2019-03-28T04:24:33.075Z,9.20
2019-03-28T04:25:33.073Z,12.20
2019-03-28T04:26:33.051Z,10.10
2019-03-28T04:27:33.059Z,23.00
2019-03-28T04:28:33.045Z,12.60
2019-03-28T04:29:33.025Z,16.00
2019-03-28T04:30:33.012Z,10.20
2019-03-28T04:31:33.000Z,9.70
2019-03-28T04:32:32.995Z,15.20
2019-03-28T04:33:32.980Z,8.40
2019-03-28T04:34:32.969Z,10.70
2019-03-28T04:35:32.959Z,12.50
2019-03-28T04:36:32.947Z,11.40
2019-03-28T04:37:32.946Z,16.80
2019-03-28T04:38:32.918Z,9.40
2019-03-28T04:39:32.911Z,9.50
2019-03-28T04:40:32.898Z,11.40
2019-03-28T04:41:32.898Z,12.60
2019-03-28T04:42:32.904Z,13.40
2019-03-28T04:43:32.871Z,12.40
2019-03-28T04:44:32.856Z,14.70
2019-03-28T04:45:32.858Z,10.70
2019-03-28T04:46:32.831Z,11.70
2019-03-28T04:47:32.836Z,11.10
2019-03-28T04:48:32.808Z,14.00
2019-03-28T04:49:32.801Z,12.10
2019-03-28T04:50:32.786Z,13.20
2019-03-28T04:51:32.780Z,10.20
2019-03-28T04:52:32.794Z,12.40
2019-03-28T04:53:32.766Z,13.10
2019-03-28T04:54:32.741Z,11.40
2019-03-28T04:55:32.735Z,12.70
2019-03-28T04:56:32.719Z,11.70
2019-03-28T04:57:32.717Z,13.70
2019-03-28T04:58:43.778Z,10.00
2019-03-28T04:59:33.685Z,14.80
2019-03-28T05:00:33.328Z,15.50
2019-03-28T05:01:32.666Z,13.30
2019-03-28T05:02:32.660Z,13.40
2019-03-28T05:03:32.656Z,11.80
2019-03-28T05:04:32.640Z,11.30
2019-03-28T05:05:32.629Z,17.50
2019-03-28T05:06:32.613Z,14.30
2019-03-28T05:07:32.599Z,11.00
2019-03-28T05:08:33.404Z,10.90
2019-03-28T05:09:32.576Z,15.10
2019-03-28T05:10:33.217Z,11.00
2019-03-28T05:11:33.323Z,8.40
2019-03-28T05:12:32.547Z,11.00
2019-03-28T05:13:32.545Z,10.40
2019-03-28T05:14:32.527Z,16.60
2019-03-28T05:15:32.512Z,9.80
2019-03-28T05:16:32.509Z,13.50
2019-03-28T05:17:32.489Z,16.10
2019-03-28T05:18:32.498Z,9.60
2019-03-28T05:19:32.466Z,14.10
2019-03-28T05:20:32.463Z,15.20
2019-03-28T05:21:32.445Z,11.00
2019-03-28T05:22:32.445Z,11.10
2019-03-28T05:23:32.433Z,12.50
2019-03-28T05:24:32.543Z,14.40
2019-03-28T05:25:32.403Z,15.80
2019-03-28T05:26:32.396Z,17.80
2019-03-28T05:27:33.453Z,16.80
2019-03-28T05:28:32.388Z,15.10
2019-03-28T05:29:32.355Z,9.70
2019-03-28T05:30:32.348Z,16.40
2019-03-28T05:31:32.352Z,6.60
2019-03-28T05:32:32.333Z,17.20
2019-03-28T05:33:32.332Z,14.70
2019-03-28T05:34:32.304Z,13.30
2019-03-28T05:35:32.289Z,10.90
2019-03-28T05:36:32.285Z,13.20
2019-03-28T05:37:32.270Z,14.80
2019-03-28T05:38:32.283Z,14.00
2019-03-28T05:39:32.249Z,13.70
2019-03-28T05:40:32.240Z,11.80
2019-03-28T05:41:32.226Z,10.40
2019-03-28T05:42:32.216Z,7.80
2019-03-28T05:43:32.218Z,12.00
2019-03-28T05:44:32.198Z,15.90
2019-03-28T05:45:32.178Z,17.00
2019-03-28T05:46:32.174Z,14.50
2019-03-28T05:47:32.156Z,14.80
2019-03-28T05:48:32.165Z,14.20
2019-03-28T05:49:32.135Z,13.10
2019-03-28T05:50:32.127Z,12.40
2019-03-28T05:51:32.112Z,14.20
2019-03-28T05:52:32.108Z,13.60
2019-03-28T05:53:32.100Z,16.30
2019-03-28T05:54:32.084Z,13.40
2019-03-28T05:55:32.066Z,13.50
2019-03-28T05:56:32.064Z,16.70
2019-03-28T05:57:32.046Z,12.00
2019-03-28T05:58:32.051Z,13.50
2019-03-28T05:59:32.024Z,16.40
2019-03-28T06:00:32.022Z,24.10
2019-03-28T06:01:32.418Z,16.10
2019-03-28T06:02:32.000Z,11.60
2019-03-28T06:03:31.989Z,11.20
2019-03-28T06:04:31.974Z,9.20
2019-03-28T06:05:31.955Z,13.50
2019-03-28T06:06:31.948Z,17.90
2019-03-28T06:07:31.933Z,12.40
2019-03-28T06:08:31.945Z,9.40
2019-03-28T06:09:31.911Z,12.80
2019-03-28T06:10:31.944Z,14.30
2019-03-28T06:11:31.888Z,8.70
2019-03-28T06:12:31.882Z,14.40
2019-03-28T06:13:31.881Z,15.20
2019-03-28T06:14:31.865Z,12.30
2019-03-28T06:15:31.846Z,9.30
2019-03-28T06:16:31.841Z,10.60
2019-03-28T06:17:31.823Z,14.30
2019-03-28T06:18:31.838Z,13.70
2019-03-28T06:19:31.830Z,11.80
2019-03-28T06:20:31.795Z,12.30
2019-03-28T06:21:31.780Z,13.60
2019-03-28T06:22:31.775Z,11.50
2019-03-28T06:23:31.782Z,8.60
2019-03-28T06:24:31.754Z,10.60
2019-03-28T06:25:31.734Z,13.40
2019-03-28T06:26:31.729Z,9.60
2019-03-28T06:27:31.712Z,11.50
2019-03-28T06:28:31.706Z,11.80
2019-03-28T06:29:31.701Z,13.00
2019-03-28T06:30:31.685Z,12.60
2019-03-28T06:31:31.669Z,13.90
2019-03-28T06:32:42.335Z,12.10
2019-03-28T06:33:32.641Z,10.40
2019-03-28T06:34:31.650Z,11.20
2019-03-28T06:35:31.624Z,11.00
2019-03-28T06:36:31.628Z,10.20
2019-03-28T06:37:32.421Z,10.70
2019-03-28T06:38:31.595Z,13.90
2019-03-28T06:39:31.592Z,11.60
2019-03-28T06:40:31.618Z,10.80
2019-03-28T06:41:31.552Z,11.40
2019-03-28T06:42:31.547Z,11.90
2019-03-28T06:43:31.528Z,13.00
2019-03-28T06:44:31.537Z,16.60
2019-03-28T06:45:31.508Z,12.60
2019-03-28T06:46:31.500Z,14.80
2019-03-28T06:47:31.501Z,12.00
2019-03-28T06:48:31.481Z,14.60
2019-03-28T06:49:31.473Z,13.30
2019-03-28T06:50:31.453Z,13.80
2019-03-28T06:51:31.440Z,13.40
2019-03-28T06:52:31.435Z,12.80
2019-03-28T06:53:31.422Z,14.60
2019-03-28T06:54:31.437Z,13.40
2019-03-28T06:55:31.394Z,13.90
2019-03-28T06:56:31.386Z,15.10
2019-03-28T06:57:31.374Z,19.50
2019-03-28T06:58:31.368Z,12.30
2019-03-28T06:59:37.401Z,10.90
2019-03-28T07:00:32.343Z,15.80
2019-03-28T07:01:31.330Z,13.50
2019-03-28T07:02:31.321Z,13.30
2019-03-28T07:03:31.306Z,15.30
2019-03-28T07:04:31.310Z,17.60
2019-03-28T07:05:31.283Z,13.80
2019-03-28T07:06:31.277Z,16.50
2019-03-28T07:07:32.330Z,16.30
2019-03-28T07:08:31.256Z,15.90
2019-03-28T07:09:31.258Z,13.60
2019-03-28T07:10:31.237Z,15.60
2019-03-28T07:11:31.229Z,17.40
2019-03-28T07:12:31.211Z,13.10
2019-03-28T07:13:31.197Z,11.80
2019-03-28T07:14:31.203Z,14.10
2019-03-28T07:15:31.176Z,13.50
2019-03-28T07:16:31.170Z,11.20
2019-03-28T07:17:31.151Z,15.30
2019-03-28T07:18:31.147Z,16.10
2019-03-28T07:19:31.153Z,9.60
2019-03-28T07:20:31.125Z,12.80
2019-03-28T07:21:31.106Z,13.30
2019-03-28T07:22:31.099Z,12.50
2019-03-28T07:23:31.085Z,11.60
2019-03-28T07:24:31.088Z,15.80
2019-03-28T07:25:31.061Z,11.90
2019-03-28T07:26:31.054Z,9.30
2019-03-28T07:27:31.049Z,13.60
2019-03-28T07:28:31.030Z,16.10
2019-03-28T07:29:31.027Z,12.20
2019-03-28T07:30:31.011Z,16.00
2019-03-28T07:31:30.997Z,12.80
2019-03-28T07:32:30.990Z,11.20
2019-03-28T07:33:30.976Z,11.10
2019-03-28T07:34:30.976Z,11.60
2019-03-28T07:35:30.951Z,14.10
2019-03-28T07:36:30.943Z,13.70
2019-03-28T07:37:30.927Z,12.50
2019-03-28T07:38:30.924Z,19.80
2019-03-28T07:39:30.919Z,12.90
2019-03-28T07:40:33.399Z,13.80
2019-03-28T07:41:30.890Z,13.60
2019-03-28T07:42:30.876Z,12.60
2019-03-28T07:43:30.862Z,12.10
2019-03-28T07:44:30.892Z,16.50
2019-03-28T07:45:30.839Z,11.30
2019-03-28T07:46:30.832Z,13.80
2019-03-28T07:47:30.815Z,13.40
2019-03-28T07:48:30.813Z,14.30
2019-03-28T07:49:30.795Z,14.10
2019-03-28T07:50:33.346Z,10.50
2019-03-28T07:51:30.770Z,14.50
2019-03-28T07:52:30.766Z,15.10
2019-03-28T07:53:30.749Z,14.30
2019-03-28T07:54:30.742Z,9.60
2019-03-28T07:55:31.534Z,12.80
2019-03-28T07:56:30.724Z,9.80
2019-03-28T07:57:30.703Z,8.20
2019-03-28T07:58:30.696Z,13.20
2019-03-28T07:59:30.682Z,9.10
2019-03-28T08:00:30.690Z,10.10
2019-03-28T08:01:30.661Z,11.20
2019-03-28T08:02:30.653Z,13.50
2019-03-28T08:03:30.640Z,11.30
2019-03-28T08:04:30.631Z,15.20
2019-03-28T08:05:30.631Z,10.90
2019-03-28T08:06:30.620Z,12.20
2019-03-28T08:07:43.972Z,8.60
2019-03-28T08:08:38.693Z,8.90
2019-03-28T08:09:36.850Z,16.40
2019-03-28T08:10:31.569Z,10.60
2019-03-28T08:11:30.656Z,12.90
2019-03-28T08:12:30.723Z,11.10
2019-03-28T08:13:30.533Z,9.10
2019-03-28T08:14:30.516Z,11.70
2019-03-28T08:15:30.519Z,13.00
2019-03-28T08:16:30.492Z,10.80
2019-03-28T08:17:30.486Z,10.80
2019-03-28T08:18:30.471Z,10.10
2019-03-28T08:19:30.473Z,9.70
2019-03-28T08:20:30.458Z,12.40
2019-03-28T08:21:30.444Z,11.60
2019-03-28T08:22:30.427Z,7.40
2019-03-28T08:23:30.420Z,11.40
2019-03-28T08:24:30.407Z,12.10
2019-03-28T08:25:30.415Z,9.20
2019-03-28T08:26:30.548Z,10.30
2019-03-28T08:27:30.377Z,10.00
2019-03-28T08:28:30.361Z,9.60
2019-03-28T08:29:30.370Z,11.00
2019-03-28T08:30:30.356Z,15.70
2019-03-28T08:31:30.335Z,12.50
2019-03-28T08:32:30.318Z,8.90
2019-03-28T08:33:30.314Z,9.60
2019-03-28T08:34:31.412Z,10.40
2019-03-28T08:35:30.306Z,6.00
2019-03-28T08:36:30.285Z,11.30
2019-03-28T08:37:30.268Z,7.70
2019-03-28T08:38:30.252Z,11.30
2019-03-28T08:39:30.248Z,9.80
2019-03-28T08:40:30.242Z,9.90
2019-03-28T08:41:30.236Z,8.90
2019-03-28T08:42:30.209Z,9.40
2019-03-28T08:43:30.204Z,8.20
2019-03-28T08:44:30.186Z,8.80
2019-03-28T08:45:30.200Z,8.40
2019-03-28T08:46:30.165Z,9.80
2019-03-28T08:47:30.158Z,8.90
2019-03-28T08:48:30.142Z,10.70
2019-03-28T08:49:30.136Z,10.30
2019-03-28T08:50:30.130Z,8.90
2019-03-28T08:51:30.115Z,8.00
2019-03-28T08:52:30.096Z,8.40
2019-03-28T08:53:30.092Z,10.00
2019-03-28T08:54:30.075Z,9.40
2019-03-28T08:55:30.077Z,9.80
2019-03-28T08:56:30.051Z,8.60
2019-03-28T08:57:30.115Z,9.00
2019-03-28T08:58:30.030Z,7.70
2019-03-28T08:59:30.025Z,12.80
2019-03-28T09:00:35.054Z,8.60
2019-03-28T09:01:30.994Z,11.60
2019-03-28T09:02:29.988Z,11.30
2019-03-28T09:03:29.971Z,10.00
2019-03-28T09:04:29.969Z,9.30
2019-03-28T09:05:29.968Z,6.90
2019-03-28T09:06:29.942Z,7.00
2019-03-28T09:07:29.927Z,8.70
2019-03-28T09:08:29.926Z,5.50
2019-03-28T09:09:29.905Z,7.10
2019-03-28T09:10:29.914Z,10.80
2019-03-28T09:11:29.885Z,14.70
2019-03-28T09:12:29.879Z,8.90
2019-03-28T09:13:29.864Z,10.20
2019-03-28T09:14:31.868Z,8.70
2019-03-28T09:15:42.643Z,10.00
2019-03-28T09:16:30.827Z,12.10
2019-03-28T09:17:29.821Z,10.90
2019-03-28T09:18:29.806Z,11.60
2019-03-28T09:19:29.800Z,11.00
2019-03-28T09:20:29.786Z,11.90
2019-03-28T09:21:29.795Z,9.60
2019-03-28T09:22:29.779Z,8.40
2019-03-28T09:23:29.770Z,7.70
2019-03-28T09:24:29.743Z,9.70
2019-03-28T09:25:29.737Z,7.90
2019-03-28T09:26:29.738Z,5.50
2019-03-28T09:27:29.723Z,5.70
2019-03-28T09:28:29.702Z,7.20
2019-03-28T09:29:29.714Z,6.00
2019-03-28T09:30:29.679Z,8.00
2019-03-28T09:31:29.685Z,10.20
2019-03-28T09:32:29.667Z,10.00
2019-03-28T09:33:29.651Z,10.50
2019-03-28T09:34:29.638Z,7.40
2019-03-28T09:35:29.687Z,12.70
2019-03-28T09:36:29.627Z,13.10
2019-03-28T09:37:29.608Z,8.80
2019-03-28T09:38:29.605Z,8.60
2019-03-28T09:39:29.599Z,10.80
2019-03-28T09:40:29.572Z,7.70
2019-03-28T09:41:29.579Z,8.20
2019-03-28T09:42:29.552Z,7.00
2019-03-28T09:43:29.546Z,8.30
2019-03-28T09:44:29.534Z,9.00
2019-03-28T09:45:30.192Z,7.00
2019-03-28T09:46:29.672Z,5.90
2019-03-28T09:47:30.329Z,6.30
2019-03-28T09:48:29.485Z,7.20
2019-03-28T09:49:29.476Z,9.10
2019-03-28T09:50:29.463Z,7.10
2019-03-28T09:51:29.475Z,7.70
2019-03-28T09:52:29.439Z,8.00
2019-03-28T09:53:29.437Z,11.30
2019-03-28T09:54:29.418Z,8.50
2019-03-28T09:55:29.420Z,6.30
2019-03-28T09:56:29.411Z,7.70
2019-03-28T09:57:29.392Z,6.60
2019-03-28T09:58:29.378Z,6.50
2019-03-28T09:59:29.370Z,5.90
2019-03-28T10:00:32.620Z,8.50
2019-03-28T10:01:29.362Z,5.70
2019-03-28T10:02:29.353Z,4.70
2019-03-28T10:03:29.359Z,8.80
2019-03-28T10:04:29.312Z,5.50
2019-03-28T10:05:29.301Z,7.30
2019-03-28T10:06:29.302Z,5.10
2019-03-28T10:07:29.282Z,5.30
2019-03-28T10:08:29.270Z,6.70
2019-03-28T10:09:29.263Z,7.90
2019-03-28T10:10:29.244Z,5.50
2019-03-28T10:11:29.250Z,7.20
2019-03-28T10:12:29.224Z,6.70
2019-03-28T10:13:29.217Z,7.90
2019-03-28T10:14:29.198Z,4.80
2019-03-28T10:15:29.191Z,4.60
2019-03-28T10:16:29.197Z,4.50
2019-03-28T10:17:29.168Z,6.70
2019-03-28T10:18:30.177Z,6.10
2019-03-28T10:19:29.147Z,8.90
2019-03-28T10:20:29.133Z,4.90
2019-03-28T10:21:29.141Z,5.60
2019-03-28T10:22:29.111Z,6.00
2019-03-28T10:23:29.105Z,5.30
2019-03-28T10:24:29.093Z,4.70
2019-03-28T10:25:29.087Z,3.90
2019-03-28T10:26:29.077Z,3.30
2019-03-28T10:27:29.058Z,2.80
2019-03-28T10:28:29.050Z,3.40
2019-03-28T10:29:29.043Z,5.00
2019-03-28T10:30:29.024Z,2.70
2019-03-28T10:31:29.031Z,3.40
2019-03-28T10:32:29.000Z,3.00
2019-03-28T10:33:28.993Z,4.20
2019-03-28T10:34:28.976Z,3.80
2019-03-28T10:35:28.973Z,4.80
2019-03-28T10:36:28.990Z,5.20
2019-03-28T10:37:28.951Z,5.30
2019-03-28T10:38:28.932Z,2.60
2019-03-28T10:39:28.928Z,8.40
2019-03-28T10:40:28.913Z,5.80
2019-03-28T10:41:29.099Z,3.90
2019-03-28T10:42:28.906Z,4.00
2019-03-28T10:43:28.881Z,4.00
2019-03-28T10:44:28.864Z,4.80
2019-03-28T10:45:28.859Z,3.80
2019-03-28T10:46:28.846Z,3.60
2019-03-28T10:47:28.850Z,6.80
2019-03-28T10:48:28.827Z,4.10
2019-03-28T10:49:28.815Z,3.40
2019-03-28T10:50:40.354Z,3.50
2019-03-28T10:51:29.792Z,5.00
2019-03-28T10:52:28.796Z,3.40
2019-03-28T10:53:30.219Z,3.50
2019-03-28T10:54:28.766Z,2.30
2019-03-28T10:55:28.744Z,1.80
2019-03-28T10:56:28.738Z,4.60
2019-03-28T10:57:30.100Z,5.40
2019-03-28T10:58:28.717Z,3.00
2019-03-28T10:59:28.702Z,4.70
2019-03-28T11:00:28.694Z,3.80
2019-03-28T11:01:47.059Z,2.60
2019-03-28T11:02:29.687Z,2.30
2019-03-28T11:03:28.658Z,2.30
2019-03-28T11:04:28.642Z,4.30
2019-03-28T11:05:28.640Z,3.10
2019-03-28T11:06:28.621Z,2.50
2019-03-28T11:07:28.626Z,2.40
2019-03-28T11:08:28.603Z,1.90
2019-03-28T11:09:28.596Z,3.20
2019-03-28T11:10:30.564Z,3.50
2019-03-28T11:11:28.579Z,2.80
2019-03-28T11:12:28.560Z,2.30
2019-03-28T11:13:28.543Z,1.80
2019-03-28T11:14:28.528Z,1.80
2019-03-28T11:15:28.521Z,1.20
2019-03-28T11:16:29.404Z,1.40
2019-03-28T11:17:28.513Z,1.60
2019-03-28T11:18:28.483Z,1.80
2019-03-28T11:19:28.478Z,2.70
2019-03-28T11:20:28.546Z,3.80
2019-03-28T11:21:28.454Z,6.70
2019-03-28T11:22:28.448Z,2.40
2019-03-28T11:23:28.428Z,3.40
2019-03-28T11:24:28.416Z,3.10
2019-03-28T11:25:28.406Z,2.70
2019-03-28T11:26:28.393Z,2.20
2019-03-28T11:27:28.394Z,2.90
2019-03-28T11:28:28.369Z,2.70
2019-03-28T11:29:28.363Z,1.40
2019-03-28T11:30:28.346Z,3.20
2019-03-28T11:31:28.338Z,2.40
2019-03-28T11:32:28.345Z,1.80
2019-03-28T11:33:28.318Z,2.10
2019-03-28T11:34:28.298Z,4.40
2019-03-28T11:35:28.295Z,2.00
2019-03-28T11:36:28.279Z,2.00
2019-03-28T11:37:28.518Z,4.20
2019-03-28T11:38:28.847Z,4.10
2019-03-28T11:39:28.250Z,3.70
2019-03-28T11:40:28.231Z,1.70
2019-03-28T11:41:28.223Z,1.50
2019-03-28T11:42:28.223Z,1.10
2019-03-28T11:43:28.203Z,3.60
2019-03-28T11:44:28.187Z,4.20
2019-03-28T11:45:28.178Z,2.40
2019-03-28T11:46:28.161Z,2.00
2019-03-28T11:47:28.169Z,3.40
2019-03-28T11:48:28.141Z,2.70
2019-03-28T11:49:28.134Z,1.90
2019-03-28T11:50:28.123Z,1.80
2019-03-28T11:51:28.110Z,3.50
2019-03-28T11:52:28.106Z,1.50
2019-03-28T11:53:28.091Z,1.10
2019-03-28T11:54:28.076Z,2.40
2019-03-28T11:55:28.074Z,3.00
2019-03-28T11:56:28.065Z,3.70
2019-03-28T11:57:28.079Z,2.00
2019-03-28T11:58:28.026Z,3.10
2019-03-28T11:59:28.023Z,4.40
2019-03-28T12:00:28.010Z,4.20
2019-03-28T12:01:28.228Z,1.60
2019-03-28T12:02:27.982Z,1.20
2019-03-28T12:03:27.988Z,2.20
2019-03-28T12:04:27.958Z,1.70
2019-03-28T12:05:27.954Z,1.90
2019-03-28T12:06:27.936Z,2.40
2019-03-28T12:07:27.932Z,3.20
2019-03-28T12:08:27.927Z,2.60
2019-03-28T12:09:27.906Z,3.40
2019-03-28T12:10:27.894Z,2.10
2019-03-28T12:11:27.889Z,3.50
2019-03-28T12:12:27.871Z,5.50
2019-03-28T12:13:27.879Z,2.10
2019-03-28T12:14:27.847Z,2.80
2019-03-28T12:15:27.911Z,1.80
2019-03-28T12:16:27.824Z,1.30
2019-03-28T12:17:27.816Z,1.80
2019-03-28T12:18:27.813Z,2.10
2019-03-28T12:19:27.792Z,3.20
2019-03-28T12:20:27.783Z,4.00
2019-03-28T12:21:27.769Z,2.30
2019-03-28T12:22:27.758Z,4.50
2019-03-28T12:23:27.765Z,1.90
2019-03-28T12:24:27.730Z,3.10
2019-03-28T12:25:27.724Z,3.40
2019-03-28T12:26:27.709Z,1.90
2019-03-28T12:27:27.700Z,3.10
2019-03-28T12:28:27.704Z,4.60
2019-03-28T12:29:27.678Z,3.00
2019-03-28T12:30:27.661Z,1.90
2019-03-28T12:31:27.656Z,2.00
2019-03-28T12:32:27.640Z,2.50
2019-03-28T12:33:27.667Z,3.70
2019-03-28T12:34:27.617Z,2.70
2019-03-28T12:35:27.615Z,3.20
2019-03-28T12:36:27.597Z,3.80
2019-03-28T12:37:27.588Z,3.30
2019-03-28T12:38:28.636Z,5.40
2019-03-28T12:39:27.570Z,6.40
2019-03-28T12:40:27.555Z,3.70
2019-03-28T12:41:27.651Z,6.30
2019-03-28T12:42:27.528Z,2.30
2019-03-28T12:43:27.569Z,3.50
2019-03-28T12:44:27.507Z,3.90
2019-03-28T12:45:27.507Z,4.40
2019-03-28T12:46:27.500Z,2.50
2019-03-28T12:47:41.212Z,2.60
2019-03-28T12:48:28.475Z,4.20
2019-03-28T12:49:27.457Z,2.30
2019-03-28T12:50:27.446Z,2.80
2019-03-28T12:51:27.437Z,2.90
2019-03-28T12:52:29.813Z,2.40
2019-03-28T12:53:27.428Z,2.30
2019-03-28T12:54:27.398Z,3.20
2019-03-28T12:55:27.389Z,2.70
2019-03-28T12:56:27.374Z,2.60
2019-03-28T12:57:27.369Z,1.50
2019-03-28T12:58:27.370Z,2.60
2019-03-28T12:59:27.345Z,2.00
2019-03-28T13:00:27.330Z,3.10
2019-03-28T13:01:27.323Z,2.60
2019-03-28T13:02:31.604Z,2.30
2019-03-28T13:03:31.280Z,2.20
2019-03-28T13:04:28.285Z,1.60
2019-03-28T13:05:27.280Z,5.50
2019-03-28T13:06:27.263Z,2.20
2019-03-28T13:07:27.259Z,3.40